sensor_id;sensor_type;location;lat;lon;timestamp;P1;durP1;ratioP1;P2;durP2;ratioP2
3891;SDS011;1961;48.194;16.370;2023-07-13T00:00:49;42.23;;;5.23;;
3891;SDS011;1961;48.194;16.370;2023-07-13T00:03:16;43.43;;;5.73;;
3891;SDS011;1961;48.194;16.370;2023-07-13T00:05:42;43.53;;;5.23;;
3891;SDS011;1961;48.194;16.370;2023-07-13T00:08:08;41.50;;;5.20;;
3891;SDS011;1961;48.194;16.370;2023-07-13T00:10:40;43.80;;;5.00;;
3891;SDS011;1961;48.194;16.370;2023-07-13T00:13:07;41.30;;;4.80;;
3891;SDS011;1961;48.194;16.370;2023-07-13T00:15:34;41.47;;;4.83;;
3891;SDS011;1961;48.194;16.370;2023-07-13T00:18:01;41.33;;;4.53;;
3891;SDS011;1961;48.194;16.370;2023-07-13T00:20:27;41.00;;;4.50;;
3891;SDS011;1961;48.194;16.370;2023-07-13T00:22:53;41.80;;;5.20;;
3891;SDS011;1961;48.194;16.370;2023-07-13T00:25:20;40.80;;;4.80;;
3891;SDS011;1961;48.194;16.370;2023-07-13T00:27:47;43.17;;;5.10;;
3891;SDS011;1961;48.194;16.370;2023-07-13T00:30:14;41.47;;;5.10;;
3891;SDS011;1961;48.194;16.370;2023-07-13T00:32:40;41.20;;;4.97;;
3891;SDS011;1961;48.194;16.370;2023-07-13T00:35:07;41.80;;;5.13;;
3891;SDS011;1961;48.194;16.370;2023-07-13T00:37:33;42.10;;;5.07;;
3891;SDS011;1961;48.194;16.370;2023-07-13T00:40:02;41.13;;;4.53;;
3891;SDS011;1961;48.194;16.370;2023-07-13T00:42:28;40.77;;;4.30;;
3891;SDS011;1961;48.194;16.370;2023-07-13T00:45:03;41.00;;;4.63;;
3891;SDS011;1961;48.194;16.370;2023-07-13T00:47:29;41.20;;;4.57;;
3891;SDS011;1961;48.194;16.370;2023-07-13T00:49:55;43.27;;;4.93;;
3891;SDS011;1961;48.194;16.370;2023-07-13T00:52:21;40.80;;;4.50;;
3891;SDS011;1961;48.194;16.370;2023-07-13T00:54:48;44.03;;;4.90;;
3891;SDS011;1961;48.194;16.370;2023-07-13T00:57:16;40.87;;;4.60;;
3891;SDS011;1961;48.194;16.370;2023-07-13T00:59:45;40.37;;;4.27;;
3891;SDS011;1961;48.194;16.370;2023-07-13T01:02:12;42.37;;;4.80;;
3891;SDS011;1961;48.194;16.370;2023-07-13T01:04:38;41.63;;;4.70;;
3891;SDS011;1961;48.194;16.370;2023-07-13T01:07:05;41.33;;;4.60;;
3891;SDS011;1961;48.194;16.370;2023-07-13T01:09:32;41.20;;;4.70;;
3891;SDS011;1961;48.194;16.370;2023-07-13T01:11:58;41.77;;;4.33;;
3891;SDS011;1961;48.194;16.370;2023-07-13T01:14:24;43.10;;;4.40;;
3891;SDS011;1961;48.194;16.370;2023-07-13T01:16:51;42.00;;;4.70;;
3891;SDS011;1961;48.194;16.370;2023-07-13T01:21:44;41.10;;;4.73;;
3891;SDS011;1961;48.194;16.370;2023-07-13T01:24:15;41.87;;;5.00;;
3891;SDS011;1961;48.194;16.370;2023-07-13T01:26:41;41.40;;;4.77;;
3891;SDS011;1961;48.194;16.370;2023-07-13T01:29:08;41.00;;;4.70;;
3891;SDS011;1961;48.194;16.370;2023-07-13T01:31:34;42.73;;;4.70;;
3891;SDS011;1961;48.194;16.370;2023-07-13T01:34:00;40.63;;;4.40;;
3891;SDS011;1961;48.194;16.370;2023-07-13T01:36:26;41.20;;;4.20;;
3891;SDS011;1961;48.194;16.370;2023-07-13T01:38:52;41.77;;;4.60;;
3891;SDS011;1961;48.194;16.370;2023-07-13T01:41:19;40.80;;;4.40;;
3891;SDS011;1961;48.194;16.370;2023-07-13T01:43:45;41.40;;;4.60;;
3891;SDS011;1961;48.194;16.370;2023-07-13T01:46:12;40.53;;;4.30;;
3891;SDS011;1961;48.194;16.370;2023-07-13T01:48:38;42.30;;;4.40;;
3891;SDS011;1961;48.194;16.370;2023-07-13T01:51:04;41.77;;;4.10;;
3891;SDS011;1961;48.194;16.370;2023-07-13T01:53:30;41.27;;;4.70;;
3891;SDS011;1961;48.194;16.370;2023-07-13T01:55:56;40.77;;;4.17;;
3891;SDS011;1961;48.194;16.370;2023-07-13T01:58:23;41.83;;;4.70;;
3891;SDS011;1961;48.194;16.370;2023-07-13T02:00:49;41.60;;;4.70;;
3891;SDS011;1961;48.194;16.370;2023-07-13T02:03:15;43.13;;;4.53;;
3891;SDS011;1961;48.194;16.370;2023-07-13T02:05:43;43.47;;;5.03;;
3891;SDS011;1961;48.194;16.370;2023-07-13T02:08:10;41.57;;;4.23;;
3891;SDS011;1961;48.194;16.370;2023-07-13T02:10:36;41.67;;;4.57;;
3891;SDS011;1961;48.194;16.370;2023-07-13T02:13:04;41.07;;;4.50;;
3891;SDS011;1961;48.194;16.370;2023-07-13T02:15:30;41.70;;;4.73;;
3891;SDS011;1961;48.194;16.370;2023-07-13T02:17:56;40.93;;;4.80;;
3891;SDS011;1961;48.194;16.370;2023-07-13T02:20:23;41.50;;;4.63;;
3891;SDS011;1961;48.194;16.370;2023-07-13T02:22:51;42.87;;;5.10;;
3891;SDS011;1961;48.194;16.370;2023-07-13T02:25:17;42.37;;;4.93;;
3891;SDS011;1961;48.194;16.370;2023-07-13T02:27:44;42.40;;;5.00;;
3891;SDS011;1961;48.194;16.370;2023-07-13T02:30:10;42.23;;;5.07;;
3891;SDS011;1961;48.194;16.370;2023-07-13T02:32:37;45.20;;;5.07;;
3891;SDS011;1961;48.194;16.370;2023-07-13T02:35:03;41.00;;;4.70;;
3891;SDS011;1961;48.194;16.370;2023-07-13T02:37:29;42.13;;;5.20;;
3891;SDS011;1961;48.194;16.370;2023-07-13T02:39:55;42.07;;;5.00;;
3891;SDS011;1961;48.194;16.370;2023-07-13T02:42:22;42.27;;;5.43;;
3891;SDS011;1961;48.194;16.370;2023-07-13T02:44:48;41.60;;;5.10;;
3891;SDS011;1961;48.194;16.370;2023-07-13T02:47:16;42.10;;;4.93;;
3891;SDS011;1961;48.194;16.370;2023-07-13T02:49:42;41.00;;;4.80;;
3891;SDS011;1961;48.194;16.370;2023-07-13T02:52:09;41.90;;;5.20;;
3891;SDS011;1961;48.194;16.370;2023-07-13T02:54:35;40.57;;;4.60;;
3891;SDS011;1961;48.194;16.370;2023-07-13T02:57:01;42.27;;;5.17;;
3891;SDS011;1961;48.194;16.370;2023-07-13T02:59:27;42.20;;;5.07;;
3891;SDS011;1961;48.194;16.370;2023-07-13T03:01:53;41.30;;;5.37;;
3891;SDS011;1961;48.194;16.370;2023-07-13T03:04:20;41.67;;;5.10;;
3891;SDS011;1961;48.194;16.370;2023-07-13T03:06:46;42.37;;;4.83;;
3891;SDS011;1961;48.194;16.370;2023-07-13T03:09:12;42.70;;;5.07;;
3891;SDS011;1961;48.194;16.370;2023-07-13T03:11:39;42.30;;;5.37;;
3891;SDS011;1961;48.194;16.370;2023-07-13T03:14:06;42.17;;;5.07;;
3891;SDS011;1961;48.194;16.370;2023-07-13T03:16:33;42.27;;;5.50;;
3891;SDS011;1961;48.194;16.370;2023-07-13T03:18:59;43.77;;;5.47;;
3891;SDS011;1961;48.194;16.370;2023-07-13T03:21:25;42.50;;;4.97;;
3891;SDS011;1961;48.194;16.370;2023-07-13T03:23:52;42.33;;;5.60;;
3891;SDS011;1961;48.194;16.370;2023-07-13T03:26:19;43.00;;;5.40;;
3891;SDS011;1961;48.194;16.370;2023-07-13T03:28:45;41.03;;;4.80;;
3891;SDS011;1961;48.194;16.370;2023-07-13T03:31:13;43.30;;;5.50;;
3891;SDS011;1961;48.194;16.370;2023-07-13T03:33:40;42.90;;;5.20;;
3891;SDS011;1961;48.194;16.370;2023-07-13T03:36:10;41.73;;;5.40;;
3891;SDS011;1961;48.194;16.370;2023-07-13T03:38:36;44.27;;;6.40;;
3891;SDS011;1961;48.194;16.370;2023-07-13T03:41:02;41.67;;;4.70;;
3891;SDS011;1961;48.194;16.370;2023-07-13T03:43:28;42.30;;;5.60;;
3891;SDS011;1961;48.194;16.370;2023-07-13T03:45:55;43.70;;;5.57;;
3891;SDS011;1961;48.194;16.370;2023-07-13T03:48:21;41.60;;;5.30;;
3891;SDS011;1961;48.194;16.370;2023-07-13T03:50:48;41.23;;;5.00;;
3891;SDS011;1961;48.194;16.370;2023-07-13T03:53:14;42.10;;;5.17;;
3891;SDS011;1961;48.194;16.370;2023-07-13T03:55:41;42.07;;;5.50;;
3891;SDS011;1961;48.194;16.370;2023-07-13T03:58:26;43.67;;;5.50;;
3891;SDS011;1961;48.194;16.370;2023-07-13T04:00:53;43.63;;;5.93;;
3891;SDS011;1961;48.194;16.370;2023-07-13T04:03:19;42.63;;;5.40;;
3891;SDS011;1961;48.194;16.370;2023-07-13T04:05:45;42.93;;;5.67;;
3891;SDS011;1961;48.194;16.370;2023-07-13T04:08:12;44.10;;;5.80;;
3891;SDS011;1961;48.194;16.370;2023-07-13T04:10:38;42.20;;;5.50;;
3891;SDS011;1961;48.194;16.370;2023-07-13T04:13:05;42.57;;;5.57;;
3891;SDS011;1961;48.194;16.370;2023-07-13T04:15:32;43.87;;;6.17;;
3891;SDS011;1961;48.194;16.370;2023-07-13T04:17:58;44.13;;;5.60;;
3891;SDS011;1961;48.194;16.370;2023-07-13T04:20:25;43.70;;;5.57;;
3891;SDS011;1961;48.194;16.370;2023-07-13T04:22:52;42.17;;;5.53;;
3891;SDS011;1961;48.194;16.370;2023-07-13T04:25:18;43.60;;;6.63;;
3891;SDS011;1961;48.194;16.370;2023-07-13T04:27:45;42.27;;;5.57;;
3891;SDS011;1961;48.194;16.370;2023-07-13T04:30:11;43.67;;;5.63;;
3891;SDS011;1961;48.194;16.370;2023-07-13T04:32:37;42.57;;;5.50;;
3891;SDS011;1961;48.194;16.370;2023-07-13T04:35:04;46.87;;;6.43;;
3891;SDS011;1961;48.194;16.370;2023-07-13T04:37:30;43.70;;;5.50;;
3891;SDS011;1961;48.194;16.370;2023-07-13T04:39:56;42.10;;;5.20;;
3891;SDS011;1961;48.194;16.370;2023-07-13T04:42:23;42.27;;;5.30;;
3891;SDS011;1961;48.194;16.370;2023-07-13T04:44:50;43.10;;;5.43;;
3891;SDS011;1961;48.194;16.370;2023-07-13T04:47:17;42.17;;;5.57;;
3891;SDS011;1961;48.194;16.370;2023-07-13T04:49:43;42.60;;;5.30;;
3891;SDS011;1961;48.194;16.370;2023-07-13T04:52:10;41.60;;;5.37;;
3891;SDS011;1961;48.194;16.370;2023-07-13T04:54:37;42.97;;;4.90;;
3891;SDS011;1961;48.194;16.370;2023-07-13T04:57:04;42.57;;;5.00;;
3891;SDS011;1961;48.194;16.370;2023-07-13T04:59:34;42.77;;;5.60;;
3891;SDS011;1961;48.194;16.370;2023-07-13T05:02:00;43.67;;;5.50;;
3891;SDS011;1961;48.194;16.370;2023-07-13T05:04:26;43.20;;;5.00;;
3891;SDS011;1961;48.194;16.370;2023-07-13T05:06:53;42.90;;;5.30;;
3891;SDS011;1961;48.194;16.370;2023-07-13T05:09:19;41.37;;;5.00;;
3891;SDS011;1961;48.194;16.370;2023-07-13T05:11:46;42.47;;;5.40;;
3891;SDS011;1961;48.194;16.370;2023-07-13T05:14:12;42.70;;;5.90;;
3891;SDS011;1961;48.194;16.370;2023-07-13T05:16:39;41.27;;;4.73;;
3891;SDS011;1961;48.194;16.370;2023-07-13T05:19:05;40.73;;;4.53;;
3891;SDS011;1961;48.194;16.370;2023-07-13T05:21:32;41.67;;;4.80;;
3891;SDS011;1961;48.194;16.370;2023-07-13T05:23:58;46.47;;;5.30;;
3891;SDS011;1961;48.194;16.370;2023-07-13T05:26:24;42.47;;;4.60;;
3891;SDS011;1961;48.194;16.370;2023-07-13T05:28:50;41.60;;;4.70;;
3891;SDS011;1961;48.194;16.370;2023-07-13T05:31:16;41.17;;;4.63;;
3891;SDS011;1961;48.194;16.370;2023-07-13T05:33:42;42.37;;;4.50;;
3891;SDS011;1961;48.194;16.370;2023-07-13T05:36:08;42.83;;;4.90;;
3891;SDS011;1961;48.194;16.370;2023-07-13T05:38:35;40.93;;;4.50;;
3891;SDS011;1961;48.194;16.370;2023-07-13T05:41:01;42.80;;;4.40;;
3891;SDS011;1961;48.194;16.370;2023-07-13T05:43:27;41.30;;;4.20;;
3891;SDS011;1961;48.194;16.370;2023-07-13T05:45:54;40.43;;;4.40;;
3891;SDS011;1961;48.194;16.370;2023-07-13T05:48:20;41.30;;;4.43;;
3891;SDS011;1961;48.194;16.370;2023-07-13T05:50:46;44.20;;;4.63;;
3891;SDS011;1961;48.194;16.370;2023-07-13T05:53:13;41.50;;;4.57;;
3891;SDS011;1961;48.194;16.370;2023-07-13T05:55:43;41.77;;;4.90;;
3891;SDS011;1961;48.194;16.370;2023-07-13T05:58:13;41.67;;;4.70;;
3891;SDS011;1961;48.194;16.370;2023-07-13T06:00:39;42.10;;;5.00;;
3891;SDS011;1961;48.194;16.370;2023-07-13T06:03:06;45.20;;;5.73;;
3891;SDS011;1961;48.194;16.370;2023-07-13T06:05:33;42.50;;;4.50;;
3891;SDS011;1961;48.194;16.370;2023-07-13T06:08:00;44.90;;;5.90;;
3891;SDS011;1961;48.194;16.370;2023-07-13T06:10:26;42.77;;;4.67;;
3891;SDS011;1961;48.194;16.370;2023-07-13T06:12:52;44.27;;;5.13;;
3891;SDS011;1961;48.194;16.370;2023-07-13T06:15:19;42.23;;;4.50;;
3891;SDS011;1961;48.194;16.370;2023-07-13T06:17:45;44.17;;;5.60;;
3891;SDS011;1961;48.194;16.370;2023-07-13T06:20:11;43.00;;;5.60;;
3891;SDS011;1961;48.194;16.370;2023-07-13T06:22:38;44.30;;;4.73;;
3891;SDS011;1961;48.194;16.370;2023-07-13T06:25:04;44.13;;;5.10;;
3891;SDS011;1961;48.194;16.370;2023-07-13T06:27:30;41.60;;;4.67;;
3891;SDS011;1961;48.194;16.370;2023-07-13T06:29:56;41.77;;;5.00;;
3891;SDS011;1961;48.194;16.370;2023-07-13T06:32:23;43.30;;;4.60;;
3891;SDS011;1961;48.194;16.370;2023-07-13T06:34:49;43.63;;;5.70;;
3891;SDS011;1961;48.194;16.370;2023-07-13T06:37:17;41.50;;;5.00;;
3891;SDS011;1961;48.194;16.370;2023-07-13T06:39:44;41.87;;;4.67;;
3891;SDS011;1961;48.194;16.370;2023-07-13T06:42:10;41.50;;;4.70;;
3891;SDS011;1961;48.194;16.370;2023-07-13T06:44:36;41.70;;;5.07;;
3891;SDS011;1961;48.194;16.370;2023-07-13T06:47:02;41.20;;;4.93;;
3891;SDS011;1961;48.194;16.370;2023-07-13T06:49:28;41.47;;;4.50;;
3891;SDS011;1961;48.194;16.370;2023-07-13T06:51:55;44.67;;;5.40;;
3891;SDS011;1961;48.194;16.370;2023-07-13T06:54:21;42.07;;;4.90;;
3891;SDS011;1961;48.194;16.370;2023-07-13T06:56:47;45.37;;;4.50;;
3891;SDS011;1961;48.194;16.370;2023-07-13T06:59:13;43.20;;;4.93;;
3891;SDS011;1961;48.194;16.370;2023-07-13T07:01:40;43.07;;;5.30;;
3891;SDS011;1961;48.194;16.370;2023-07-13T07:04:06;42.40;;;4.30;;
3891;SDS011;1961;48.194;16.370;2023-07-13T07:06:32;43.10;;;4.70;;
3891;SDS011;1961;48.194;16.370;2023-07-13T07:08:58;40.70;;;4.40;;
3891;SDS011;1961;48.194;16.370;2023-07-13T07:11:25;41.37;;;4.63;;
3891;SDS011;1961;48.194;16.370;2023-07-13T07:13:52;41.77;;;5.03;;
3891;SDS011;1961;48.194;16.370;2023-07-13T07:16:19;40.10;;;4.30;;
3891;SDS011;1961;48.194;16.370;2023-07-13T07:18:46;43.10;;;5.50;;
3891;SDS011;1961;48.194;16.370;2023-07-13T07:21:12;41.50;;;4.43;;
3891;SDS011;1961;48.194;16.370;2023-07-13T07:23:39;44.30;;;4.70;;
3891;SDS011;1961;48.194;16.370;2023-07-13T07:26:05;41.40;;;4.60;;
3891;SDS011;1961;48.194;16.370;2023-07-13T07:28:34;40.77;;;4.60;;
3891;SDS011;1961;48.194;16.370;2023-07-13T07:31:00;42.00;;;4.70;;
3891;SDS011;1961;48.194;16.370;2023-07-13T07:33:26;42.70;;;4.87;;
3891;SDS011;1961;48.194;16.370;2023-07-13T07:35:53;40.40;;;4.67;;
3891;SDS011;1961;48.194;16.370;2023-07-13T07:38:19;43.30;;;5.10;;
3891;SDS011;1961;48.194;16.370;2023-07-13T07:40:45;41.10;;;4.30;;
3891;SDS011;1961;48.194;16.370;2023-07-13T07:43:12;44.80;;;4.73;;
3891;SDS011;1961;48.194;16.370;2023-07-13T07:45:39;44.17;;;5.30;;
3891;SDS011;1961;48.194;16.370;2023-07-13T07:48:06;43.00;;;4.70;;
3891;SDS011;1961;48.194;16.370;2023-07-13T07:50:35;42.80;;;4.33;;
3891;SDS011;1961;48.194;16.370;2023-07-13T07:53:02;41.67;;;4.50;;
3891;SDS011;1961;48.194;16.370;2023-07-13T07:55:32;42.10;;;4.53;;
3891;SDS011;1961;48.194;16.370;2023-07-13T07:57:58;41.37;;;4.40;;
3891;SDS011;1961;48.194;16.370;2023-07-13T08:00:24;42.27;;;4.20;;
3891;SDS011;1961;48.194;16.370;2023-07-13T08:02:51;41.10;;;4.60;;
3891;SDS011;1961;48.194;16.370;2023-07-13T08:05:17;43.17;;;4.87;;
3891;SDS011;1961;48.194;16.370;2023-07-13T08:07:43;41.47;;;4.50;;
3891;SDS011;1961;48.194;16.370;2023-07-13T08:10:09;42.30;;;4.67;;
3891;SDS011;1961;48.194;16.370;2023-07-13T08:12:36;41.83;;;4.30;;
3891;SDS011;1961;48.194;16.370;2023-07-13T08:15:02;42.90;;;4.83;;
3891;SDS011;1961;48.194;16.370;2023-07-13T08:17:28;40.63;;;4.57;;
3891;SDS011;1961;48.194;16.370;2023-07-13T08:19:55;41.07;;;4.50;;
3891;SDS011;1961;48.194;16.370;2023-07-13T08:22:21;40.70;;;4.53;;
3891;SDS011;1961;48.194;16.370;2023-07-13T08:24:47;42.37;;;4.60;;
3891;SDS011;1961;48.194;16.370;2023-07-13T08:27:20;42.37;;;4.50;;
3891;SDS011;1961;48.194;16.370;2023-07-13T08:29:50;41.57;;;4.30;;
3891;SDS011;1961;48.194;16.370;2023-07-13T08:32:17;40.47;;;4.20;;
3891;SDS011;1961;48.194;16.370;2023-07-13T08:34:43;42.17;;;4.50;;
3891;SDS011;1961;48.194;16.370;2023-07-13T08:37:09;45.77;;;4.73;;
3891;SDS011;1961;48.194;16.370;2023-07-13T08:39:36;43.10;;;4.90;;
3891;SDS011;1961;48.194;16.370;2023-07-13T08:42:07;41.10;;;4.70;;
3891;SDS011;1961;48.194;16.370;2023-07-13T08:44:40;40.67;;;4.70;;
3891;SDS011;1961;48.194;16.370;2023-07-13T08:47:10;42.30;;;4.50;;
3891;SDS011;1961;48.194;16.370;2023-07-13T08:49:38;42.37;;;5.20;;
3891;SDS011;1961;48.194;16.370;2023-07-13T08:52:06;41.27;;;4.37;;
3891;SDS011;1961;48.194;16.370;2023-07-13T08:54:38;41.60;;;5.10;;
3891;SDS011;1961;48.194;16.370;2023-07-13T08:57:13;44.50;;;5.20;;
3891;SDS011;1961;48.194;16.370;2023-07-13T08:59:39;42.07;;;5.27;;
3891;SDS011;1961;48.194;16.370;2023-07-13T09:10:09;42.53;;;5.50;;
3891;SDS011;1961;48.194;16.370;2023-07-13T09:15:28;45.30;;;6.43;;
3891;SDS011;1961;48.194;16.370;2023-07-13T09:17:56;42.70;;;5.60;;
3891;SDS011;1961;48.194;16.370;2023-07-13T09:22:59;46.83;;;6.90;;
3891;SDS011;1961;48.194;16.370;2023-07-13T09:25:33;42.90;;;5.87;;
3891;SDS011;1961;48.194;16.370;2023-07-13T09:28:02;42.20;;;6.30;;
3891;SDS011;1961;48.194;16.370;2023-07-13T09:33:18;43.50;;;6.33;;
3891;SDS011;1961;48.194;16.370;2023-07-13T09:35:45;44.13;;;6.47;;
3891;SDS011;1961;48.194;16.370;2023-07-13T09:43:07;43.03;;;7.00;;
3891;SDS011;1961;48.194;16.370;2023-07-13T09:45:36;43.30;;;7.33;;
3891;SDS011;1961;48.194;16.370;2023-07-13T09:48:12;42.23;;;6.90;;
3891;SDS011;1961;48.194;16.370;2023-07-13T09:50:39;43.70;;;6.80;;
3891;SDS011;1961;48.194;16.370;2023-07-13T09:53:13;41.77;;;6.20;;
3891;SDS011;1961;48.194;16.370;2023-07-13T09:55:40;47.00;;;6.93;;
3891;SDS011;1961;48.194;16.370;2023-07-13T09:58:17;45.43;;;6.67;;
3891;SDS011;1961;48.194;16.370;2023-07-13T10:00:56;44.40;;;6.90;;
3891;SDS011;1961;48.194;16.370;2023-07-13T10:03:24;44.10;;;6.63;;
3891;SDS011;1961;48.194;16.370;2023-07-13T10:05:51;42.80;;;6.70;;
3891;SDS011;1961;48.194;16.370;2023-07-13T10:08:26;44.43;;;6.60;;
3891;SDS011;1961;48.194;16.370;2023-07-13T10:10:54;42.40;;;6.80;;
3891;SDS011;1961;48.194;16.370;2023-07-13T10:13:27;42.00;;;6.23;;
3891;SDS011;1961;48.194;16.370;2023-07-13T10:15:55;45.60;;;6.30;;
3891;SDS011;1961;48.194;16.370;2023-07-13T10:18:21;44.30;;;6.87;;
3891;SDS011;1961;48.194;16.370;2023-07-13T10:20:50;44.47;;;6.47;;
3891;SDS011;1961;48.194;16.370;2023-07-13T10:23:21;41.83;;;6.60;;
3891;SDS011;1961;48.194;16.370;2023-07-13T10:25:50;45.83;;;7.23;;
3891;SDS011;1961;48.194;16.370;2023-07-13T10:30:46;44.00;;;6.77;;
3891;SDS011;1961;48.194;16.370;2023-07-13T10:33:15;47.60;;;6.83;;
3891;SDS011;1961;48.194;16.370;2023-07-13T10:35:42;42.30;;;6.50;;
3891;SDS011;1961;48.194;16.370;2023-07-13T10:38:13;42.80;;;6.93;;
3891;SDS011;1961;48.194;16.370;2023-07-13T10:40:41;43.10;;;7.07;;
3891;SDS011;1961;48.194;16.370;2023-07-13T10:43:13;42.53;;;7.27;;
3891;SDS011;1961;48.194;16.370;2023-07-13T10:45:40;47.30;;;7.53;;
3891;SDS011;1961;48.194;16.370;2023-07-13T10:48:08;45.53;;;7.40;;
3891;SDS011;1961;48.194;16.370;2023-07-13T10:50:35;43.37;;;7.13;;
3891;SDS011;1961;48.194;16.370;2023-07-13T10:53:17;43.50;;;7.00;;
3891;SDS011;1961;48.194;16.370;2023-07-13T10:58:19;43.60;;;7.83;;
3891;SDS011;1961;48.194;16.370;2023-07-13T11:00:51;43.83;;;7.30;;
3891;SDS011;1961;48.194;16.370;2023-07-13T11:03:20;43.17;;;7.07;;
3891;SDS011;1961;48.194;16.370;2023-07-13T11:05:50;43.57;;;6.93;;
3891;SDS011;1961;48.194;16.370;2023-07-13T11:08:19;43.40;;;7.57;;
3891;SDS011;1961;48.194;16.370;2023-07-13T11:16:00;45.63;;;6.40;;
3891;SDS011;1961;48.194;16.370;2023-07-13T11:18:26;43.80;;;6.80;;
3891;SDS011;1961;48.194;16.370;2023-07-13T11:20:52;43.83;;;6.97;;
3891;SDS011;1961;48.194;16.370;2023-07-13T11:23:38;44.00;;;7.20;;
3891;SDS011;1961;48.194;16.370;2023-07-13T11:26:37;42.40;;;6.93;;
3891;SDS011;1961;48.194;16.370;2023-07-13T11:28:54;43.43;;;6.97;;
3891;SDS011;1961;48.194;16.370;2023-07-13T11:31:20;45.83;;;7.03;;
3891;SDS011;1961;48.194;16.370;2023-07-13T11:33:50;42.47;;;6.17;;
3891;SDS011;1961;48.194;16.370;2023-07-13T11:36:18;43.00;;;6.90;;
3891;SDS011;1961;48.194;16.370;2023-07-13T11:38:55;47.93;;;7.53;;
3891;SDS011;1961;48.194;16.370;2023-07-13T11:41:25;43.17;;;6.30;;
3891;SDS011;1961;48.194;16.370;2023-07-13T11:44:01;41.80;;;6.47;;
3891;SDS011;1961;48.194;16.370;2023-07-13T11:46:28;42.20;;;6.60;;
3891;SDS011;1961;48.194;16.370;2023-07-13T11:48:54;44.10;;;6.70;;
3891;SDS011;1961;48.194;16.370;2023-07-13T11:51:22;42.33;;;6.57;;
3891;SDS011;1961;48.194;16.370;2023-07-13T11:53:50;45.43;;;6.97;;
3891;SDS011;1961;48.194;16.370;2023-07-13T11:56:17;45.60;;;6.60;;
3891;SDS011;1961;48.194;16.370;2023-07-13T11:58:43;42.40;;;6.87;;
3891;SDS011;1961;48.194;16.370;2023-07-13T12:01:15;43.60;;;6.87;;
3891;SDS011;1961;48.194;16.370;2023-07-13T12:03:43;43.90;;;6.97;;
3891;SDS011;1961;48.194;16.370;2023-07-13T12:06:24;42.27;;;6.00;;
3891;SDS011;1961;48.194;16.370;2023-07-13T12:08:55;43.63;;;7.17;;
3891;SDS011;1961;48.194;16.370;2023-07-13T12:11:22;41.97;;;6.10;;
3891;SDS011;1961;48.194;16.370;2023-07-13T12:13:48;43.27;;;6.50;;
3891;SDS011;1961;48.194;16.370;2023-07-13T12:18:54;56.17;;;7.20;;
3891;SDS011;1961;48.194;16.370;2023-07-13T12:21:23;43.53;;;6.37;;
3891;SDS011;1961;48.194;16.370;2023-07-13T12:23:50;44.07;;;6.00;;
3891;SDS011;1961;48.194;16.370;2023-07-13T12:26:17;42.13;;;5.93;;
3891;SDS011;1961;48.194;16.370;2023-07-13T12:28:45;43.43;;;7.03;;
3891;SDS011;1961;48.194;16.370;2023-07-13T12:31:26;44.73;;;6.43;;
3891;SDS011;1961;48.194;16.370;2023-07-13T12:33:56;44.00;;;5.90;;
3891;SDS011;1961;48.194;16.370;2023-07-13T12:36:23;43.60;;;6.23;;
3891;SDS011;1961;48.194;16.370;2023-07-13T12:38:50;43.37;;;6.90;;
3891;SDS011;1961;48.194;16.370;2023-07-13T12:41:16;43.17;;;6.60;;
3891;SDS011;1961;48.194;16.370;2023-07-13T12:43:43;43.53;;;6.90;;
3891;SDS011;1961;48.194;16.370;2023-07-13T12:46:18;44.23;;;6.37;;
3891;SDS011;1961;48.194;16.370;2023-07-13T12:48:48;43.30;;;6.00;;
3891;SDS011;1961;48.194;16.370;2023-07-13T12:51:15;44.03;;;6.53;;
3891;SDS011;1961;48.194;16.370;2023-07-13T12:53:42;42.40;;;6.33;;
3891;SDS011;1961;48.194;16.370;2023-07-13T12:56:13;41.67;;;6.37;;
3891;SDS011;1961;48.194;16.370;2023-07-13T12:58:41;43.00;;;6.03;;
3891;SDS011;1961;48.194;16.370;2023-07-13T13:01:09;42.50;;;6.10;;
3891;SDS011;1961;48.194;16.370;2023-07-13T13:03:38;44.87;;;7.30;;
3891;SDS011;1961;48.194;16.370;2023-07-13T13:08:41;42.50;;;6.50;;
3891;SDS011;1961;48.194;16.370;2023-07-13T13:11:09;42.63;;;6.80;;
3891;SDS011;1961;48.194;16.370;2023-07-13T13:13:35;42.07;;;6.00;;
3891;SDS011;1961;48.194;16.370;2023-07-13T13:16:23;42.80;;;6.10;;
3891;SDS011;1961;48.194;16.370;2023-07-13T13:18:48;42.00;;;6.57;;
3891;SDS011;1961;48.194;16.370;2023-07-13T13:21:15;47.30;;;6.30;;
3891;SDS011;1961;48.194;16.370;2023-07-13T13:23:41;43.47;;;6.63;;
3891;SDS011;1961;48.194;16.370;2023-07-13T13:26:13;44.03;;;7.17;;
3891;SDS011;1961;48.194;16.370;2023-07-13T13:28:43;42.30;;;6.30;;
3891;SDS011;1961;48.194;16.370;2023-07-13T13:31:10;42.70;;;6.33;;
3891;SDS011;1961;48.194;16.370;2023-07-13T13:33:41;45.53;;;7.67;;
3891;SDS011;1961;48.194;16.370;2023-07-13T13:36:20;44.30;;;6.83;;
3891;SDS011;1961;48.194;16.370;2023-07-13T13:38:47;43.50;;;6.47;;
3891;SDS011;1961;48.194;16.370;2023-07-13T13:41:14;42.87;;;6.40;;
3891;SDS011;1961;48.194;16.370;2023-07-13T13:43:41;42.80;;;6.40;;
3891;SDS011;1961;48.194;16.370;2023-07-13T13:46:15;43.33;;;7.00;;
3891;SDS011;1961;48.194;16.370;2023-07-13T13:48:42;43.07;;;6.43;;
3891;SDS011;1961;48.194;16.370;2023-07-13T13:51:16;42.37;;;6.20;;
3891;SDS011;1961;48.194;16.370;2023-07-13T13:53:43;47.37;;;6.57;;
3891;SDS011;1961;48.194;16.370;2023-07-13T13:56:10;43.47;;;6.30;;
3891;SDS011;1961;48.194;16.370;2023-07-13T13:58:36;42.53;;;5.90;;
3891;SDS011;1961;48.194;16.370;2023-07-13T14:01:03;42.43;;;6.27;;
3891;SDS011;1961;48.194;16.370;2023-07-13T14:03:33;44.40;;;5.80;;
3891;SDS011;1961;48.194;16.370;2023-07-13T14:05:59;42.00;;;6.37;;
3891;SDS011;1961;48.194;16.370;2023-07-13T14:08:26;44.47;;;6.30;;
3891;SDS011;1961;48.194;16.370;2023-07-13T14:10:53;42.40;;;5.50;;
3891;SDS011;1961;48.194;16.370;2023-07-13T14:15:46;43.27;;;6.50;;
3891;SDS011;1961;48.194;16.370;2023-07-13T14:18:13;42.60;;;6.67;;
3891;SDS011;1961;48.194;16.370;2023-07-13T14:20:46;42.63;;;6.23;;
3891;SDS011;1961;48.194;16.370;2023-07-13T14:23:14;43.03;;;6.57;;
3891;SDS011;1961;48.194;16.370;2023-07-13T14:25:40;43.07;;;6.60;;
3891;SDS011;1961;48.194;16.370;2023-07-13T14:28:20;44.37;;;6.77;;
3891;SDS011;1961;48.194;16.370;2023-07-13T14:30:48;42.60;;;6.00;;
3891;SDS011;1961;48.194;16.370;2023-07-13T14:33:15;44.47;;;6.30;;
3891;SDS011;1961;48.194;16.370;2023-07-13T14:35:41;47.80;;;6.70;;
3891;SDS011;1961;48.194;16.370;2023-07-13T14:38:15;43.57;;;6.40;;
3891;SDS011;1961;48.194;16.370;2023-07-13T14:40:43;45.20;;;6.60;;
3891;SDS011;1961;48.194;16.370;2023-07-13T14:43:13;43.60;;;6.07;;
3891;SDS011;1961;48.194;16.370;2023-07-13T14:45:40;41.87;;;5.87;;
3891;SDS011;1961;48.194;16.370;2023-07-13T14:48:17;42.00;;;6.07;;
3891;SDS011;1961;48.194;16.370;2023-07-13T14:50:45;44.80;;;6.87;;
3891;SDS011;1961;48.194;16.370;2023-07-13T14:53:12;43.33;;;6.60;;
3891;SDS011;1961;48.194;16.370;2023-07-13T14:55:39;44.37;;;6.43;;
3891;SDS011;1961;48.194;16.370;2023-07-13T14:58:05;43.37;;;6.00;;
3891;SDS011;1961;48.194;16.370;2023-07-13T15:00:32;42.50;;;6.07;;
3891;SDS011;1961;48.194;16.370;2023-07-13T15:02:59;43.37;;;5.70;;
3891;SDS011;1961;48.194;16.370;2023-07-13T15:05:27;46.97;;;6.23;;
3891;SDS011;1961;48.194;16.370;2023-07-13T15:07:57;44.07;;;6.23;;
3891;SDS011;1961;48.194;16.370;2023-07-13T15:10:28;43.67;;;6.57;;
3891;SDS011;1961;48.194;16.370;2023-07-13T15:13:00;44.10;;;6.80;;
3891;SDS011;1961;48.194;16.370;2023-07-13T15:15:28;42.77;;;6.60;;
3891;SDS011;1961;48.194;16.370;2023-07-13T15:17:56;44.00;;;6.60;;
3891;SDS011;1961;48.194;16.370;2023-07-13T15:22:51;46.33;;;6.77;;
3891;SDS011;1961;48.194;16.370;2023-07-13T15:25:19;43.70;;;6.83;;
3891;SDS011;1961;48.194;16.370;2023-07-13T15:27:45;43.17;;;6.43;;
3891;SDS011;1961;48.194;16.370;2023-07-13T15:30:12;43.17;;;6.30;;
3891;SDS011;1961;48.194;16.370;2023-07-13T15:32:41;43.70;;;6.30;;
3891;SDS011;1961;48.194;16.370;2023-07-13T15:35:40;45.70;;;6.77;;